Time;durP1;ratioP1;P1;durP2;ratioP2;P2;SDS_P1;SDS_P2;PMS_P1;PMS_P2;Temp;Humidity;BMP_temperature;BMP_pressure;BME280_temperature;BME280_humidity;BME280_pressure;Samples;Min_cycle;Max_cycle;Signal;HPM_P1;HPM_P2
2022/10/31 00:01:54;;;;;;;0.03;0.03;;;;;;;14.64;67.26;100029.03;7356324;19;20038;-58
2022/10/31 00:04:19;;;;;;;0.10;0.10;;;;;;;14.68;67.43;100035.00;7354017;19;20497;-59
2022/10/31 00:06:45;;;;;;;0.10;0.10;;;;;;;14.70;67.50;100034.03;7352686;19;20014;-58
2022/10/31 00:09:11;;;;;;;0.10;0.10;;;;;;;14.74;67.88;100035.53;7351751;19;20118;-58
2022/10/31 00:11:36;;;;;;;0.00;0.00;;;;;;;14.71;67.39;100030.47;7351312;19;20018;-58
2022/10/31 00:14:03;;;;;;;0.00;0.00;;;;;;;14.76;67.45;100036.34;7351821;19;20014;-59
2022/10/31 00:16:29;;;;;;;0.00;0.00;;;;;;;14.77;67.47;100039.81;7352841;19;20006;-57
2022/10/31 00:18:58;;;;;;;0.05;0.05;;;;;;;14.78;67.86;100042.34;7352300;19;20006;-58
2022/10/31 00:21:24;;;;;;;0.00;0.00;;;;;;;14.78;67.53;100042.34;7352741;19;20059;-58
2022/10/31 00:23:50;;;;;;;0.00;0.00;;;;;;;14.78;67.73;100041.50;7352352;19;20502;-58
2022/10/31 00:26:16;;;;;;;0.00;0.00;;;;;;;14.68;67.50;100022.72;7351040;19;20010;-57
2022/10/31 00:28:42;;;;;;;0.03;0.03;;;;;;;14.79;67.28;100036.16;7352218;19;20081;-58
2022/10/31 00:31:10;;;;;;;0.00;0.00;;;;;;;14.79;67.48;100037.94;7351398;19;20061;-58
2022/10/31 00:33:37;;;;;;;0.00;0.00;;;;;;;14.76;67.83;100031.06;7353682;19;20049;-58
2022/10/31 00:36:04;;;;;;;0.00;0.00;;;;;;;14.81;67.25;100037.88;7355575;19;20022;-58
2022/10/31 00:38:30;;;;;;;0.00;0.00;;;;;;;14.79;67.77;100033.53;7358811;19;20010;-58
2022/10/31 00:40:55;;;;;;;0.00;0.00;;;;;;;14.82;67.81;100036.94;7360234;19;20552;-58
2022/10/31 00:43:21;;;;;;;0.00;0.00;;;;;;;14.82;67.67;100031.69;7358608;19;20256;-57
2022/10/31 00:45:46;;;;;;;0.00;0.00;;;;;;;14.84;67.80;100037.72;7357424;19;20006;-58
2022/10/31 00:48:11;;;;;;;0.10;0.10;;;;;;;14.82;67.77;100031.69;7357009;19;20006;-59
2022/10/31 00:50:37;;;;;;;0.10;0.10;;;;;;;14.81;67.97;100025.59;7357183;19;20010;-58
2022/10/31 00:53:03;;;;;;;0.00;0.00;;;;;;;14.84;67.63;100035.06;7360739;19;20087;-57
2022/10/31 00:55:28;;;;;;;0.10;0.10;;;;;;;14.84;67.25;100030.66;7360472;19;20021;-59
2022/10/31 00:57:54;;;;;;;0.05;0.05;;;;;;;14.85;67.57;100026.25;7359767;19;20025;-58
2022/10/31 01:00:19;;;;;;;0.05;0.05;;;;;;;14.84;67.50;100020.16;7360486;19;20010;-59
2022/10/31 01:02:45;;;;;;;0.00;0.00;;;;;;;14.79;67.67;100007.25;7360214;19;20462;-59
2022/10/31 01:05:10;;;;;;;0.08;0.08;;;;;;;14.75;67.92;99992.59;7356665;19;20019;-58
2022/10/31 01:07:37;;;;;;;0.10;0.10;;;;;;;14.70;67.67;99991.97;7359960;19;20021;-58
2022/10/31 01:10:04;;;;;;;0.00;0.00;;;;;;;14.87;67.48;100016.53;7357602;19;20011;-58
2022/10/31 01:12:29;;;;;;;0.00;0.00;;;;;;;14.87;67.41;100011.28;7360287;19;20398;-59
2022/10/31 01:14:55;;;;;;;0.08;0.08;;;;;;;14.87;67.76;100008.66;7357063;19;20026;-59
2022/10/31 01:17:20;;;;;;;0.00;0.00;;;;;;;14.86;67.62;100012.22;7360114;19;20027;-58
2022/10/31 01:19:45;;;;;;;0.00;0.00;;;;;;;14.82;67.73;100001.00;7357544;19;20022;-57
2022/10/31 01:22:11;;;;;;;0.03;0.03;;;;;;;14.86;67.70;100006.94;7356604;19;20018;-58
2022/10/31 01:24:36;;;;;;;0.00;0.00;;;;;;;14.87;67.35;100008.66;7358183;19;20014;-58
2022/10/31 01:27:02;;;;;;;0.10;0.10;;;;;;;14.85;67.34;100010.47;7356619;19;20014;-58
2022/10/31 01:29:27;;;;;;;0.00;0.00;;;;;;;14.82;67.98;99993.09;7359708;19;20002;-58
2022/10/31 01:31:53;;;;;;;0.00;0.00;;;;;;;14.70;67.27;99965.69;7359568;19;20024;-58
2022/10/31 01:34:18;;;;;;;0.00;0.00;;;;;;;14.87;67.91;99987.63;7357702;19;20006;-58
2022/10/31 01:36:47;;;;;;;0.00;0.00;;;;;;;14.88;67.65;100000.66;7359448;19;20457;-58
2022/10/31 01:39:14;;;;;;;0.05;0.05;;;;;;;14.90;68.03;99995.31;7359928;19;20016;-58
2022/10/31 01:41:46;;;;;;;0.10;0.10;;;;;;;14.93;67.74;100000.44;7364116;19;20723;-58
2022/10/31 01:44:14;;;;;;;0.00;0.00;;;;;;;14.93;67.55;99993.41;7362850;19;20039;-58
2022/10/31 01:46:45;;;;;;;0.00;0.00;;;;;;;14.94;67.60;99983.72;7364975;19;20022;-58
2022/10/31 01:49:33;;;;;;;0.00;0.00;;;;;;;14.97;67.64;99988.84;7364726;19;20691;-58
2022/10/31 01:52:04;;;;;;;0.00;0.00;;;;;;;15.02;67.22;99992.06;7366921;19;20481;-58
2022/10/31 01:54:35;;;;;;;0.08;0.08;;;;;;;15.05;67.59;99998.03;7363257;19;20010;-58
2022/10/31 01:57:04;;;;;;;0.00;0.00;;;;;;;15.06;67.53;99993.63;7365980;19;20023;-58
2022/10/31 01:59:34;;;;;;;0.10;0.10;;;;;;;15.08;67.47;99989.13;7363567;19;20006;-58
2022/10/31 02:01:59;;;;;;;0.00;0.00;;;;;;;15.10;67.62;99989.88;7364555;19;20037;-58
2022/10/31 02:04:26;;;;;;;0.00;0.00;;;;;;;15.12;67.19;99993.28;7364226;19;20054;-58
2022/10/31 02:06:58;;;;;;;0.00;0.00;;;;;;;15.15;67.19;99989.63;7364766;19;20086;-58
2022/10/31 02:09:25;;;;;;;0.10;0.10;;;;;;;15.16;67.62;99978.22;7362629;19;20349;-58
2022/10/31 02:11:57;;;;;;;0.00;0.00;;;;;;;15.19;67.50;99981.50;7365032;19;20026;-58
2022/10/31 02:14:25;;;;;;;0.05;0.05;;;;;;;15.03;67.36;99951.69;7362710;19;20017;-57
2022/10/31 02:16:50;;;;;;;0.10;0.10;;;;;;;15.19;66.89;99984.13;7365923;19;20480;-58
2022/10/31 02:19:41;;;;;;;0.00;0.00;;;;;;;15.08;66.69;99944.41;7363912;19;20011;-58
2022/10/31 02:22:28;;;;;;;0.00;0.00;;;;;;;15.26;66.68;99975.00;7363911;19;20070;-58
2022/10/31 02:25:03;;;;;;;0.00;0.00;;;;;;;15.29;66.69;99974.81;7364547;19;20014;-59
2022/10/31 02:27:57;;;;;;;0.10;0.10;;;;;;;15.30;66.48;99978.28;7363243;19;20026;-58
2022/10/31 02:30:28;;;;;;;0.00;0.00;;;;;;;15.28;66.50;99982.81;7262252;19;2004421;-59
2022/10/31 02:33:26;;;;;;;0.00;0.00;;;;;;;15.28;66.40;99970.50;7361261;19;20019;-59
2022/10/31 02:36:21;;;;;;;0.10;0.10;;;;;;;15.29;66.24;99959.03;7258898;19;2004410;-58
2022/10/31 02:39:06;;;;;;;0.00;0.00;;;;;;;15.31;65.99;99951.94;7261984;19;2004422;-58
2022/10/31 02:41:40;;;;;;;0.10;0.10;;;;;;;15.30;65.92;99959.88;7364010;19;20014;-58
2022/10/31 02:44:16;;;;;;;0.05;0.05;;;;;;;15.30;65.80;99952.00;7362109;19;20066;-59
2022/10/31 02:46:49;;;;;;;0.00;0.00;;;;;;;15.30;66.12;99947.56;7360883;19;20006;-58
2022/10/31 02:49:35;;;;;;;0.00;0.00;;;;;;;15.31;65.76;99946.66;7364226;19;20517;-58
2022/10/31 02:52:00;;;;;;;0.10;0.10;;;;;;;15.26;65.46;99946.06;7358803;19;20078;-58
2022/10/31 02:54:28;;;;;;;0.10;0.10;;;;;;;15.27;65.79;99929.34;7362018;19;21485;-58
2022/10/31 02:57:06;;;;;;;0.00;0.00;;;;;;;15.32;65.62;99942.25;7362757;19;20710;-58
2022/10/31 02:59:36;;;;;;;0.00;0.00;;;;;;;15.30;65.78;99939.69;7356774;19;20033;-58
2022/10/31 03:02:32;;;;;;;0.10;0.10;;;;;;;15.34;65.98;99931.63;7364349;19;20036;-58
2022/10/31 03:05:06;;;;;;;0.00;0.00;;;;;;;15.35;65.84;99920.19;7262246;19;2004252;-58
2022/10/31 03:07:44;;;;;;;0.10;0.10;;;;;;;15.37;66.02;99921.81;7365124;19;20689;-57
2022/10/31 03:10:09;;;;;;;;;;;;;;;15.41;65.53;99920.72;7364758;19;20010;-59
2022/10/31 03:12:45;;;;;;;0.00;0.00;;;;;;;15.39;65.51;99900.66;7361758;19;19930;-58
2022/10/31 03:15:24;;;;;;;0.10;0.10;;;;;;;15.44;65.69;99906.53;7365241;19;21070;-58
2022/10/31 03:17:56;;;;;;;0.00;0.00;;;;;;;15.46;65.55;99899.38;7364294;19;20011;-59
2022/10/31 03:20:27;;;;;;;0.10;0.10;;;;;;;15.46;65.62;99902.00;7363771;19;20952;-58
2022/10/31 03:22:55;;;;;;;0.00;0.00;;;;;;;15.47;65.35;99904.59;7363914;19;20018;-58
2022/10/31 03:25:22;;;;;;;0.10;0.10;;;;;;;15.46;65.81;99902.88;7362156;19;20017;-58
2022/10/31 03:27:49;;;;;;;0.08;0.08;;;;;;;15.48;65.37;99905.44;7364804;19;20114;-58
2022/10/31 03:30:15;;;;;;;0.00;0.00;;;;;;;15.50;65.91;99903.53;7365092;19;20581;-58
2022/10/31 03:33:03;;;;;;;0.10;0.10;;;;;;;15.54;65.31;99905.06;7357880;19;20054;-58
2022/10/31 03:35:30;;;;;;;0.00;0.00;;;;;;;15.54;65.81;99912.97;7262629;19;2004492;-58
2022/10/31 03:37:58;;;;;;;0.10;0.10;;;;;;;15.57;65.68;99910.19;7364377;19;20015;-58
2022/10/31 03:40:26;;;;;;;;;;;;;;;15.66;65.32;99906.19;7365568;19;20448;-57
2022/10/31 03:42:58;;;;;;;0.00;0.00;;;;;;;15.66;65.39;99900.94;7361931;19;19925;-58
2022/10/31 03:45:28;;;;;;;0.00;0.00;;;;;;;15.64;65.19;99897.56;7364414;19;20010;-58
2022/10/31 03:47:55;;;;;;;0.10;0.10;;;;;;;15.68;65.08;99901.72;7362045;19;20478;-58
2022/10/31 03:50:23;;;;;;;0.00;0.00;;;;;;;15.65;64.95;99905.34;7363110;19;20345;-58
2022/10/31 03:53:12;;;;;;;0.10;0.10;;;;;;;15.72;64.99;99906.72;7363017;19;20018;-58
2022/10/31 03:55:52;;;;;;;0.00;0.00;;;;;;;15.74;65.27;99904.84;7364135;19;20490;-58
2022/10/31 03:58:44;;;;;;;0.00;0.00;;;;;;;15.70;64.89;99892.78;7362430;19;20017;-58
2022/10/31 04:01:14;;;;;;;0.10;0.10;;;;;;;15.67;65.23;99885.06;7256503;19;2004371;-58
2022/10/31 04:03:39;;;;;;;0.10;0.10;;;;;;;15.62;64.92;99881.81;7348371;19;20014;-59
2022/10/31 04:06:12;;;;;;;0.00;0.00;;;;;;;15.69;65.17;99882.34;7361822;19;20013;-58
2022/10/31 04:08:48;;;;;;;0.10;0.10;;;;;;;15.68;64.82;99881.50;7361686;19;20070;-58
2022/10/31 04:11:18;;;;;;;0.00;0.00;;;;;;;15.66;64.88;99888.66;7363498;19;20123;-59
2022/10/31 04:13:45;;;;;;;0.10;0.10;;;;;;;15.65;64.77;99904.50;7363141;19;20018;-59
2022/10/31 04:16:12;;;;;;;;;;;;;;;15.68;64.96;99891.19;7360719;19;20019;-58
2022/10/31 04:18:37;;;;;;;0.00;0.00;;;;;;;15.66;64.55;99887.78;7360717;19;19946;-58
2022/10/31 04:21:06;;;;;;;0.00;0.00;;;;;;;15.66;64.81;99878.13;7354707;19;20011;-58
2022/10/31 04:23:32;;;;;;;0.00;0.00;;;;;;;15.53;64.74;99866.53;7362909;19;20014;-58
2022/10/31 04:25:57;;;;;;;0.00;0.00;;;;;;;15.52;64.75;99864.84;7362728;19;20825;-58
2022/10/31 04:28:23;;;;;;;0.00;0.00;;;;;;;15.63;64.65;99883.53;7362448;19;22412;-59
2022/10/31 04:30:49;;;;;;;0.03;0.03;;;;;;;15.62;65.26;99881.81;7365145;19;20569;-59
2022/10/31 04:33:14;;;;;;;0.05;0.05;;;;;;;15.64;65.13;99887.88;7364423;19;20036;-58
2022/10/31 04:35:40;;;;;;;0.05;0.05;;;;;;;15.63;64.91;99883.53;7363294;19;20018;-58
2022/10/31 04:38:05;;;;;;;0.00;0.00;;;;;;;15.65;65.36;99870.28;7362296;19;20017;-57
2022/10/31 04:40:31;;;;;;;0.05;0.05;;;;;;;15.64;65.40;99863.34;7362507;19;20003;-58
2022/10/31 04:42:56;;;;;;;0.00;0.00;;;;;;;15.65;65.32;99865.88;7363877;19;20037;-57
2022/10/31 04:45:21;;;;;;;0.00;0.00;;;;;;;15.55;64.87;99846.25;7361545;19;21276;-58
2022/10/31 04:47:47;;;;;;;0.00;0.00;;;;;;;15.65;65.21;99860.59;7363953;19;20014;-58
2022/10/31 04:50:12;;;;;;;0.00;0.00;;;;;;;15.64;64.69;99869.44;7363081;19;20254;-58
2022/10/31 04:52:41;;;;;;;0.00;0.00;;;;;;;15.64;64.78;99879.97;7364097;19;20022;-58
2022/10/31 04:55:07;;;;;;;0.10;0.10;;;;;;;15.54;64.79;99857.72;7363260;19;20374;-59
2022/10/31 04:57:40;;;;;;;0.00;0.00;;;;;;;15.64;65.33;99866.81;7365133;19;20059;-58
2022/10/31 05:00:06;;;;;;;0.10;0.10;;;;;;;15.60;65.43;99867.88;7361871;19;20430;-58
2022/10/31 05:02:32;;;;;;;0.00;0.00;;;;;;;15.60;65.61;99859.16;7361436;19;20557;-58
2022/10/31 05:04:57;;;;;;;0.10;0.10;;;;;;;15.65;65.56;99865.88;7362913;19;20011;-58
2022/10/31 05:07:22;;;;;;;0.10;0.10;;;;;;;15.68;65.33;99864.88;7363157;19;20015;-58
2022/10/31 05:09:48;;;;;;;0.00;0.00;;;;;;;15.59;65.09;99863.56;7363103;19;20026;-58
2022/10/31 05:12:13;;;;;;;0.10;0.10;;;;;;;15.76;65.42;99879.28;7361764;19;20014;-58
2022/10/31 05:14:39;;;;;;;0.10;0.10;;;;;;;15.78;65.24;99861.63;7360831;19;20021;-59
2022/10/31 05:17:04;;;;;;;0.10;0.10;;;;;;;15.82;64.81;99870.19;7368370;19;20569;-58
2022/10/31 05:19:29;;;;;;;0.00;0.00;;;;;;;15.83;64.89;99856.94;7368906;19;20013;-58
2022/10/31 05:21:55;;;;;;;0.10;0.10;;;;;;;15.87;64.99;99857.59;7370990;19;20876;-58
2022/10/31 05:24:21;;;;;;;0.05;0.05;;;;;;;15.90;65.18;99860.03;7366495;19;20011;-58
2022/10/31 05:26:48;;;;;;;0.10;0.10;;;;;;;15.94;64.73;99860.72;7369260;19;20029;-58
2022/10/31 05:29:13;;;;;;;0.00;0.00;;;;;;;15.95;64.60;99859.78;7364921;19;20030;-59
2022/10/31 05:31:38;;;;;;;0.00;0.00;;;;;;;15.93;64.46;99857.25;7368726;19;20006;-59
2022/10/31 05:34:04;;;;;;;0.00;0.00;;;;;;;15.96;64.42;99851.78;7369140;19;20101;-58
2022/10/31 05:36:29;;;;;;;0.05;0.05;;;;;;;15.97;64.89;99850.03;7368266;19;20017;-59
2022/10/31 05:38:54;;;;;;;0.10;0.10;;;;;;;15.95;64.40;99846.63;7366274;19;20030;-58
2022/10/31 05:41:20;;;;;;;0.10;0.10;;;;;;;15.98;64.33;99841.19;7368101;19;20014;-59
2022/10/31 05:43:45;;;;;;;0.00;0.00;;;;;;;15.97;64.18;99840.34;7369458;19;20022;-58
2022/10/31 05:46:11;;;;;;;0.10;0.10;;;;;;;16.00;64.82;99828.75;7368959;19;20022;-56
2022/10/31 05:48:36;;;;;;;0.10;0.10;;;;;;;16.00;64.25;99826.13;7368682;19;20018;-58
2022/10/31 05:51:01;;;;;;;0.10;0.10;;;;;;;16.02;64.54;99829.53;7367961;19;20045;-58
2022/10/31 05:53:27;;;;;;;0.00;0.00;;;;;;;16.01;64.21;99814.66;7367078;19;20018;-57
2022/10/31 05:55:52;;;;;;;0.10;0.10;;;;;;;16.05;64.43;99829.34;7369480;19;20025;-58
2022/10/31 05:58:17;;;;;;;0.10;0.10;;;;;;;16.05;64.41;99826.69;7367904;19;20058;-58
2022/10/31 06:00:43;;;;;;;0.08;0.08;;;;;;;16.05;64.69;99822.28;7368207;19;20010;-58
2022/10/31 06:03:09;;;;;;;0.10;0.10;;;;;;;16.07;64.72;99825.69;7365818;19;20006;-58
2022/10/31 06:05:34;;;;;;;0.10;0.10;;;;;;;16.07;64.92;99832.75;7367775;19;20020;-58
2022/10/31 06:08:00;;;;;;;0.10;0.10;;;;;;;16.08;64.68;99835.28;7364320;19;21531;-59
2022/10/31 06:10:26;;;;;;;0.00;0.00;;;;;;;16.08;64.74;99831.81;7368486;19;20029;-58
2022/10/31 06:12:52;;;;;;;0.00;0.00;;;;;;;16.09;64.92;99833.50;7362353;19;20976;-58
2022/10/31 06:15:18;;;;;;;0.00;0.00;;;;;;;16.07;64.92;99816.94;7369510;19;20033;-58
2022/10/31 06:17:43;;;;;;;0.10;0.10;;;;;;;16.08;65.25;99810.72;7367642;19;21398;-58
2022/10/31 06:20:09;;;;;;;0.00;0.00;;;;;;;16.07;65.08;99817.78;7368278;19;20391;-58
2022/10/31 06:22:34;;;;;;;0.00;0.00;;;;;;;16.04;65.28;99814.47;7367282;19;20135;-58
2022/10/31 06:25:00;;;;;;;0.00;0.00;;;;;;;15.90;65.21;99785.47;7368120;19;20019;-58
2022/10/31 06:27:25;;;;;;;0.08;0.08;;;;;;;15.87;65.22;99781.25;7364548;19;20017;-59
2022/10/31 06:29:51;;;;;;;0.05;0.05;;;;;;;16.02;65.17;99805.84;7368067;19;20488;-57
2022/10/31 06:32:16;;;;;;;0.00;0.00;;;;;;;16.02;65.37;99805.84;7367024;19;20041;-59
2022/10/31 06:34:42;;;;;;;0.00;0.00;;;;;;;15.97;65.15;99800.00;7367850;19;20014;-59
2022/10/31 06:37:09;;;;;;;0.00;0.00;;;;;;;15.87;65.48;99796.22;7366507;19;20017;-58
2022/10/31 06:39:35;;;;;;;0.00;0.00;;;;;;;15.88;65.32;99792.63;7366323;19;20019;-58
2022/10/31 06:42:00;;;;;;;0.00;0.00;;;;;;;15.98;65.66;99814.84;7366108;19;24592;-58
2022/10/31 06:44:26;;;;;;;0.00;0.00;;;;;;;15.87;65.24;99788.31;7365447;19;20018;-58
2022/10/31 06:46:51;;;;;;;0.00;0.00;;;;;;;15.97;65.74;99813.16;7367643;19;22318;-57
2022/10/31 06:49:17;;;;;;;0.00;0.00;;;;;;;15.96;65.75;99806.19;7366129;19;20058;-58
2022/10/31 06:51:43;;;;;;;0.10;0.10;;;;;;;15.86;65.75;99783.97;7367576;19;20010;-58
2022/10/31 06:54:08;;;;;;;0.00;0.00;;;;;;;15.85;66.10;99779.63;7362761;19;20003;-58
2022/10/31 06:56:34;;;;;;;0.00;0.00;;;;;;;15.99;65.50;99800.75;7367459;19;22149;-58
2022/10/31 06:58:59;;;;;;;0.10;0.10;;;;;;;16.00;66.03;99798.00;7356861;19;20010;-58
2022/10/31 07:01:25;;;;;;;0.00;0.00;;;;;;;16.02;65.72;99800.56;7364520;19;20037;-58
2022/10/31 07:03:50;;;;;;;0.03;0.03;;;;;;;16.04;65.80;99802.16;7362528;19;20390;-58
2022/10/31 07:06:15;;;;;;;0.10;0.10;;;;;;;16.05;65.67;99805.63;7362376;19;20118;-58
2022/10/31 07:08:41;;;;;;;0.00;0.00;;;;;;;16.04;65.84;99806.59;7365436;19;20018;-58
2022/10/31 07:11:06;;;;;;;0.10;0.10;;;;;;;16.07;65.30;99814.31;7365283;19;20021;-58
2022/10/31 07:13:32;;;;;;;0.03;0.03;;;;;;;16.05;65.53;99822.28;7362357;19;20029;-58
2022/10/31 07:16:03;;;;;;;0.10;0.10;;;;;;;16.08;65.55;99827.38;7364081;19;20018;-58
2022/10/31 07:18:28;;;;;;;0.00;0.00;;;;;;;16.04;65.23;99825.00;7363241;19;20439;-58
2022/10/31 07:20:54;;;;;;;0.00;0.00;;;;;;;16.07;65.24;99835.38;7364507;19;20202;-57
2022/10/31 07:23:19;;;;;;;0.10;0.10;;;;;;;15.98;65.37;99820.13;7363049;19;20028;-58
2022/10/31 07:25:45;;;;;;;0.10;0.10;;;;;;;16.08;65.46;99837.06;7364088;19;20025;-59
2022/10/31 07:28:10;;;;;;;0.10;0.10;;;;;;;16.07;65.67;99835.38;7360679;19;20082;-59
2022/10/31 07:30:37;;;;;;;0.10;0.10;;;;;;;16.09;65.62;99839.59;7363790;19;20571;-58
2022/10/31 07:33:03;;;;;;;0.10;0.10;;;;;;;16.07;65.52;99835.38;7362811;19;20684;-58
2022/10/31 07:35:29;;;;;;;0.03;0.03;;;;;;;16.07;65.75;99825.69;7364940;19;21562;-57
2022/10/31 07:37:55;;;;;;;0.10;0.10;;;;;;;16.13;65.56;99835.00;7363829;19;20014;-58
2022/10/31 07:40:22;;;;;;;0.10;0.10;;;;;;;16.16;65.71;99844.50;7364743;19;25245;-57
2022/10/31 07:42:49;;;;;;;0.10;0.10;;;;;;;16.17;65.94;99847.06;7365590;19;20755;-58
2022/10/31 07:45:17;;;;;;;0.05;0.05;;;;;;;16.21;65.81;99847.72;7362660;19;20021;-59
2022/10/31 07:47:45;;;;;;;0.10;0.10;;;;;;;16.14;65.58;99831.44;7366160;19;20023;-57
2022/10/31 07:50:13;;;;;;;0.00;0.00;;;;;;;16.20;65.65;99849.50;7355474;19;20034;-58
2022/10/31 07:52:38;;;;;;;0.10;0.10;;;;;;;16.22;65.86;99850.28;7362475;19;20039;-58
2022/10/31 07:55:05;;;;;;;0.10;0.10;;;;;;;16.24;65.76;99848.38;7364160;19;20014;-58
2022/10/31 07:57:31;;;;;;;0.10;0.10;;;;;;;16.24;65.91;99848.38;7362763;19;20018;-58
2022/10/31 07:59:56;;;;;;;0.00;0.00;;;;;;;16.26;66.09;99856.19;7362503;19;20022;-58
2022/10/31 08:02:22;;;;;;;0.10;0.10;;;;;;;16.22;65.74;99846.75;7362440;19;20006;-59
2022/10/31 08:04:48;;;;;;;0.10;0.10;;;;;;;16.27;65.44;99853.47;7362517;19;20109;-58
2022/10/31 08:07:13;;;;;;;0.10;0.10;;;;;;;16.20;65.51;99838.13;7361602;19;20089;-58
2022/10/31 08:09:39;;;;;;;0.10;0.10;;;;;;;16.28;65.35;99844.63;7362810;19;20014;-58
2022/10/31 08:12:05;;;;;;;0.08;0.08;;;;;;;16.31;65.35;99844.44;7363320;19;20095;-58
2022/10/31 08:14:30;;;;;;;0.00;0.00;;;;;;;16.32;65.43;99854.06;7360341;19;20025;-58
2022/10/31 08:16:55;;;;;;;0.00;0.00;;;;;;;16.38;65.25;99854.63;7364499;19;20049;-58
2022/10/31 08:19:21;;;;;;;0.00;0.00;;;;;;;16.38;64.80;99855.47;7363154;19;20007;-58
2022/10/31 08:21:49;;;;;;;0.03;0.03;;;;;;;16.40;64.74;99843.03;7364382;19;20361;-58
2022/10/31 08:24:15;;;;;;;0.10;0.10;;;;;;;16.43;64.67;99848.13;7364496;19;20010;-59
2022/10/31 08:26:40;;;;;;;0.00;0.00;;;;;;;16.44;64.58;99843.72;7353607;19;20002;-59
2022/10/31 08:29:06;;;;;;;0.00;0.00;;;;;;;16.47;64.76;99859.31;7363578;19;20017;-58
2022/10/31 08:31:31;;;;;;;0.10;0.10;;;;;;;16.50;64.68;99857.34;7362645;19;20013;-58
2022/10/31 08:33:56;;;;;;;0.00;0.00;;;;;;;16.51;64.32;99850.28;7363214;19;20466;-58
2022/10/31 08:36:22;;;;;;;0.00;0.00;;;;;;;16.54;63.85;99850.13;7363354;19;20621;-58
2022/10/31 08:38:48;;;;;;;0.10;0.10;;;;;;;16.55;64.63;99857.06;7361211;19;20006;-58
2022/10/31 08:41:14;;;;;;;0.10;0.10;;;;;;;16.57;64.77;99849.91;7363519;19;20018;-58
2022/10/31 08:43:39;;;;;;;0.05;0.05;;;;;;;16.58;64.49;99843.72;7351981;19;20037;-58
2022/10/31 08:46:05;;;;;;;0.10;0.10;;;;;;;16.60;64.78;99844.47;7361586;19;20028;-58
2022/10/31 08:48:31;;;;;;;0.10;0.10;;;;;;;16.57;64.53;99840.25;7361106;19;20021;-58
2022/10/31 08:50:58;;;;;;;0.10;0.10;;;;;;;16.65;63.90;99845.03;7359551;19;20014;-58
2022/10/31 08:53:24;;;;;;;0.00;0.00;;;;;;;16.68;63.59;99851.91;7360666;19;20029;-58
2022/10/31 08:55:50;;;;;;;0.00;0.00;;;;;;;16.70;63.61;99844.75;7361432;19;22240;-58
2022/10/31 08:58:17;;;;;;;0.10;0.10;;;;;;;16.61;63.19;99823.28;7361493;19;20082;-57
2022/10/31 09:00:43;;;;;;;;;;;;;;;16.80;63.99;99846.75;7363103;19;20481;-58
2022/10/31 09:03:17;;;;;;;0.10;0.10;;;;;;;16.73;63.23;99834.91;7359487;19;19923;-57
2022/10/31 09:05:42;;;;;;;0.08;0.08;;;;;;;16.77;62.45;99840.81;7363462;19;20086;-58
2022/10/31 09:08:08;;;;;;;0.10;0.10;;;;;;;16.79;62.65;99850.34;7364802;19;20044;-58
2022/10/31 09:10:35;;;;;;;0.10;0.10;;;;;;;16.81;62.90;99845.81;7363537;19;20014;-58
2022/10/31 09:13:06;;;;;;;0.10;0.10;;;;;;;16.84;62.24;99850.91;7362321;19;20544;-58
2022/10/31 09:15:33;;;;;;;0.00;0.00;;;;;;;16.87;62.60;99852.47;7362779;19;21121;-58
2022/10/31 09:17:59;;;;;;;0.00;0.00;;;;;;;16.82;62.35;99834.31;7363022;19;20701;-58
2022/10/31 09:20:24;;;;;;;0.05;0.05;;;;;;;16.93;62.00;99864.44;7358116;19;20017;-58
2022/10/31 09:23:01;;;;;;;0.03;0.03;;;;;;;16.98;62.10;99854.44;7360301;19;20013;-59
2022/10/31 09:25:27;;;;;;;0.00;0.00;;;;;;;16.99;62.21;99861.44;7360014;19;20070;-58
2022/10/31 09:27:58;;;;;;;0.05;0.05;;;;;;;17.02;62.29;99858.59;7360260;19;20102;-58
2022/10/31 09:30:29;;;;;;;0.10;0.10;;;;;;;17.01;62.24;99870.94;7358736;19;20037;-58
2022/10/31 09:33:01;;;;;;;0.10;0.10;;;;;;;17.06;62.60;99870.66;7358687;19;20044;-58
2022/10/31 09:35:27;;;;;;;0.00;0.00;;;;;;;17.02;62.32;99869.97;7358752;19;20011;-58
2022/10/31 09:38:04;;;;;;;0.10;0.10;;;;;;;17.10;62.68;99864.25;7361476;19;20027;-57
2022/10/31 09:40:35;;;;;;;0.05;0.05;;;;;;;17.10;63.58;99864.25;7358826;19;20010;-58
2022/10/31 09:43:48;;;;;;;0.10;0.10;;;;;;;17.09;63.04;99863.41;7358285;19;20027;-59
2022/10/31 09:46:33;;;;;;;0.10;0.10;;;;;;;17.05;63.40;99858.41;7254468;19;2004396;-58
2022/10/31 09:49:32;;;;;;;0.10;0.10;;;;;;;17.03;63.45;99849.72;7360042;19;20018;-58
2022/10/31 09:52:05;;;;;;;0.00;0.00;;;;;;;17.01;63.00;99849.00;7255418;19;2004218;-58
2022/10/31 09:54:51;;;;;;;0.10;0.10;;;;;;;16.95;63.15;99841.47;7357815;19;20601;-59
2022/10/31 09:57:25;;;;;;;0.00;0.00;;;;;;;16.96;63.56;99840.53;7359536;19;20014;-58
2022/10/31 09:59:50;;;;;;;0.10;0.10;;;;;;;16.94;63.51;99847.69;7358373;19;20109;-58
2022/10/31 10:02:34;;;;;;;0.10;0.10;;;;;;;16.94;63.62;99843.25;7363894;19;20637;-57
2022/10/31 10:05:04;;;;;;;0.00;0.00;;;;;;;16.98;63.25;99849.16;7361392;19;20033;-58
2022/10/31 10:07:32;;;;;;;0.10;0.10;;;;;;;17.01;63.16;99854.25;7365024;19;20761;-57
2022/10/31 10:10:00;;;;;;;0.10;0.10;;;;;;;16.97;62.63;99853.59;7364609;19;20102;-58
2022/10/31 10:12:38;;;;;;;0.08;0.08;;;;;;;17.06;62.93;99849.53;7366062;19;20903;-58
2022/10/31 10:15:35;;;;;;;0.05;0.05;;;;;;;17.11;63.00;99860.66;7362940;19;20041;-58
2022/10/31 10:18:21;;;;;;;0.10;0.10;;;;;;;17.13;62.87;99856.13;7261241;19;2004154;-58
2022/10/31 10:20:52;;;;;;;0.10;0.10;;;;;;;17.07;62.64;99853.88;7365397;19;20799;-58
2022/10/31 10:23:46;;;;;;;0.10;0.10;;;;;;;17.17;62.72;99854.97;7364744;19;20010;-58
2022/10/31 10:26:21;;;;;;;0.10;0.10;;;;;;;17.16;62.31;99861.22;7263553;19;2004517;-58
2022/10/31 10:29:17;;;;;;;0.10;0.10;;;;;;;17.25;62.83;99847.44;7362514;19;20125;-58
2022/10/31 10:31:46;;;;;;;0.00;0.00;;;;;;;17.25;61.95;99849.22;7264737;19;2004441;-58
2022/10/31 10:34:27;;;;;;;0.10;0.10;;;;;;;17.29;62.47;99851.59;7364743;19;20014;-59
2022/10/31 10:37:01;;;;;;;0.10;0.10;;;;;;;17.34;62.36;99857.41;7365380;19;20019;-58
2022/10/31 10:39:36;;;;;;;0.10;0.10;;;;;;;17.28;61.86;99831.38;7362113;19;20407;-58
2022/10/31 10:48:08;;;;;;;0.00;0.00;;;;;;;17.55;62.17;99843.78;7363697;19;20908;-58
2022/10/31 10:50:39;;;;;;;0.10;0.10;;;;;;;17.47;62.13;99825.78;7263346;19;2004581;-58
2022/10/31 10:53:21;;;;;;;0.10;0.10;;;;;;;17.63;62.18;99842.31;7365124;19;20866;-58
2022/10/31 10:56:16;;;;;;;0.10;0.10;;;;;;;17.70;62.46;99842.75;7365518;19;20018;-59
2022/10/31 10:58:42;;;;;;;0.10;0.10;;;;;;;17.74;62.02;99839.00;7262239;19;2004292;-58
2022/10/31 11:01:14;;;;;;;0.10;0.10;;;;;;;17.83;61.39;99848.94;7364165;19;20569;-57
2022/10/31 11:03:41;;;;;;;0.10;0.10;;;;;;;17.83;60.98;99841.03;7366211;19;20006;-58
2022/10/31 11:06:22;;;;;;;0.10;0.10;;;;;;;17.93;61.49;99837.78;7363353;19;20006;-58
2022/10/31 11:08:48;;;;;;;0.10;0.10;;;;;;;17.95;60.31;99846.47;7364052;19;20010;-58
2022/10/31 11:11:16;;;;;;;0.10;0.10;;;;;;;18.03;61.26;99847.63;7365164;19;20045;-57
2022/10/31 11:13:44;;;;;;;0.10;0.10;;;;;;;18.10;61.00;99840.16;7359454;19;21106;-58
2022/10/31 11:16:32;;;;;;;0.10;0.10;;;;;;;18.27;62.29;99831.91;7363693;19;20359;-59
2022/10/31 11:19:17;;;;;;;0.10;0.10;;;;;;;18.44;61.77;99840.47;7359450;19;20007;-58
2022/10/31 11:21:47;;;;;;;0.10;0.10;;;;;;;18.51;59.80;99839.94;7366048;19;20029;-58
2022/10/31 11:24:18;;;;;;;0.10;0.10;;;;;;;18.63;59.99;99835.59;7363671;19;20006;-58
2022/10/31 11:26:46;;;;;;;0.03;0.03;;;;;;;18.70;59.16;99844.81;7364795;19;20010;-57
2022/10/31 11:29:19;;;;;;;0.10;0.10;;;;;;;18.71;59.18;99835.09;7361494;19;20003;-58
2022/10/31 11:31:46;;;;;;;0.10;0.10;;;;;;;18.78;59.50;99852.22;7359820;19;20025;-58
2022/10/31 11:34:38;;;;;;;0.10;0.10;;;;;;;18.76;59.42;99841.75;7359717;19;20534;-58
2022/10/31 11:37:25;;;;;;;0.10;0.10;;;;;;;18.93;59.84;99852.00;7363861;19;20519;-58
2022/10/31 11:39:54;;;;;;;0.10;0.10;;;;;;;18.91;58.71;99853.91;7364644;19;20017;-58
2022/10/31 11:42:26;;;;;;;0.10;0.10;;;;;;;18.83;59.56;99850.94;7365676;19;20007;-58
2022/10/31 11:44:53;;;;;;;0.10;0.10;;;;;;;18.67;60.96;99856.44;7366153;19;20007;-58
2022/10/31 11:47:27;;;;;;;0.10;0.10;;;;;;;18.57;59.76;99865.13;7365158;19;20023;-58
2022/10/31 11:49:53;;;;;;;0.10;0.10;;;;;;;18.34;59.41;99849.03;7364351;19;20018;-58